Bristol, Rhode Island
Current Conditions -  °F | °C
As of 4:27 AM on Monday 24 Nov 2014 (Local Time) from KPVD Reporting Station
Light Rain Light Rain  
Wind Chill: 53°   Ceiling: 2800
Heat Index: 53°   Visibility: 4mi
Dew Point: 52°   Wind: 12mph
Humidity: 96%   Direction: 150°SSE
Pressure: 29.95"   Gusts: NA
Location:  41.67°N, 71.28°W
Report Text: KPVD 240927Z AUTO 15010KT 4SM -RA BR FEW008 BKN028 OVC036 12/11 A2995 RMK AO2 PRESFR P0003 T01170111
Loading
Personal Weather Stations






























Interactive Weather Map New forecast layout! Learn more

10-Day Weather Forecast

Advertisements
Track Severe Weather on mobile